Time;durP1;ratioP1;P1;durP2;ratioP2;P2;SDS_P1;SDS_P2;PMS_P1;PMS_P2;Temp;Humidity;BMP_temperature;BMP_pressure;BME280_temperature;BME280_humidity;BME280_pressure;Samples;Min_cycle;Max_cycle;Signal;HPM_P1;HPM_P2
2024/02/07 00:02:24;;;;;;;7.05;4.20;;;;;;;6.34;72.43;100351.22;5029301;28;20029;-66
2024/02/07 00:04:49;;;;;;;7.15;4.10;;;;;;;6.34;72.21;100340.97;5029398;28;20056;-64
2024/02/07 00:07:15;;;;;;;6.63;3.90;;;;;;;5.92;72.39;100279.81;5029357;28;20504;-66
2024/02/07 00:09:40;;;;;;;8.85;3.70;;;;;;;6.34;72.66;100348.66;5032047;28;20028;-69
2024/02/07 00:12:06;;;;;;;6.60;3.75;;;;;;;5.97;72.02;100262.16;5035538;28;20526;-67
2024/02/07 00:14:32;;;;;;;8.50;4.10;;;;;;;6.52;71.94;100341.03;5029223;28;20473;-69
2024/02/07 00:16:57;;;;;;;10.38;3.95;;;;;;;6.59;71.08;100324.25;5029129;28;20021;-69
2024/02/07 00:19:23;;;;;;;9.57;3.88;;;;;;;6.69;70.80;100344.47;5030034;28;20029;-64
2024/02/07 00:21:49;;;;;;;10.00;3.83;;;;;;;6.57;71.65;100336.16;5028893;28;20051;-67
2024/02/07 00:24:14;;;;;;;7.47;3.70;;;;;;;6.54;71.37;100339.44;5029309;28;20056;-65
2024/02/07 00:26:40;;;;;;;6.35;3.60;;;;;;;6.63;71.31;100355.28;5029259;28;20037;-65
2024/02/07 00:29:05;;;;;;;9.07;3.95;;;;;;;6.71;71.07;100349.66;5029043;28;20025;-67
2024/02/07 00:31:31;;;;;;;8.35;3.67;;;;;;;6.51;70.44;100287.97;5025150;28;20045;-71
2024/02/07 00:33:56;;;;;;;12.93;3.67;;;;;;;7.03;69.77;100355.50;5026939;28;20032;-64
2024/02/07 00:36:22;;;;;;;11.57;3.92;;;;;;;6.97;69.58;100351.84;5029658;28;20036;-66
2024/02/07 00:38:47;;;;;;;13.82;4.50;;;;;;;7.13;69.45;100357.75;5028989;28;20477;-66
2024/02/07 00:41:23;;;;;;;6.68;3.65;;;;;;;6.85;67.70;100263.97;5029188;28;20104;-66
2024/02/07 00:43:50;;;;;;;9.82;3.95;;;;;;;7.41;67.50;100336.84;5028936;28;20121;-65
2024/02/07 00:46:15;;;;;;;6.43;3.55;;;;;;;7.03;66.46;100268.25;5029296;28;20083;-65
2024/02/07 00:48:41;;;;;;;7.97;4.25;;;;;;;7.09;68.12;100346.44;5002558;28;20576;-68
2024/02/07 00:51:07;;;;;;;12.65;4.30;;;;;;;6.92;68.51;100324.19;5028981;28;20029;-71
2024/02/07 00:53:33;;;;;;;7.32;4.00;;;;;;;6.97;68.37;100341.56;5028553;28;20189;-69
2024/02/07 00:55:59;;;;;;;8.77;4.00;;;;;;;6.44;69.06;100278.22;5029454;28;20535;-74
2024/02/07 00:58:24;;;;;;;11.25;4.40;;;;;;;6.73;68.91;100340.34;5029317;28;20029;-66
2024/02/07 01:00:51;;;;;;;8.25;4.43;;;;;;;6.60;69.20;100344.88;5029077;28;20075;-65
2024/02/07 01:03:16;;;;;;;9.23;5.13;;;;;;;6.52;69.90;100324.75;5025417;28;20033;-67
2024/02/07 01:05:42;;;;;;;8.50;4.32;;;;;;;6.60;69.99;100347.44;5023314;28;20030;-69
2024/02/07 01:08:08;;;;;;;10.38;4.38;;;;;;;6.43;70.02;100297.84;5027705;28;20034;-67
2024/02/07 01:10:33;;;;;;;8.45;4.18;;;;;;;6.76;69.25;100340.53;5029369;28;20073;-68
2024/02/07 01:12:59;;;;;;;8.93;4.20;;;;;;;6.83;69.40;100334.91;5028064;28;20037;-72
2024/02/07 01:15:24;;;;;;;8.15;3.67;;;;;;;6.77;68.77;100327.75;5028767;28;20029;-67
2024/02/07 01:17:50;;;;;;;9.90;4.00;;;;;;;6.52;68.80;100330.78;5028497;28;20033;-68
2024/02/07 01:20:16;;;;;;;7.13;4.00;;;;;;;6.16;70.03;100325.50;5028764;28;20029;-67
2024/02/07 01:22:42;;;;;;;8.40;4.13;;;;;;;5.72;71.10;100306.06;5028703;28;20020;-67
2024/02/07 01:25:08;;;;;;;9.52;4.05;;;;;;;5.82;71.75;100333.94;5028814;28;20041;-67
2024/02/07 01:27:34;;;;;;;8.82;4.18;;;;;;;5.66;72.11;100322.88;5028358;28;20086;-67
2024/02/07 01:30:01;;;;;;;10.95;4.63;;;;;;;5.58;72.46;100298.53;5029161;28;20029;-70
2024/02/07 01:32:27;;;;;;;7.38;4.30;;;;;;;5.89;71.83;100325.78;5028291;28;20032;-67
2024/02/07 01:34:52;;;;;;;8.23;4.13;;;;;;;6.02;71.62;100316.22;5027347;28;20029;-66
2024/02/07 01:37:18;;;;;;;7.80;4.60;;;;;;;6.10;71.59;100318.38;5028635;28;20045;-68
2024/02/07 01:39:44;;;;;;;9.05;4.47;;;;;;;5.99;72.91;100305.03;5028589;28;20477;-66
2024/02/07 01:42:09;;;;;;;7.28;3.60;;;;;;;5.95;73.53;100305.59;5028173;28;20112;-68
2024/02/07 01:44:37;;;;;;;8.57;4.00;;;;;;;5.88;73.62;100310.31;5029171;28;20507;-68
2024/02/07 01:47:14;;;;;;;8.10;3.88;;;;;;;5.66;74.37;100327.13;5028216;28;20029;-70
2024/02/07 01:49:39;;;;;;;9.75;4.30;;;;;;;5.55;74.86;100315.41;5031527;28;20144;-67
2024/02/07 01:52:08;;;;;;;8.13;4.20;;;;;;;5.39;75.67;100314.56;5030308;28;20552;-67
2024/02/07 01:54:34;;;;;;;9.23;4.45;;;;;;;5.31;76.36;100319.25;4991193;28;20580;-67
2024/02/07 01:57:00;;;;;;;6.70;4.13;;;;;;;5.31;76.60;100314.13;5033799;28;20033;-65
2024/02/07 01:59:25;;;;;;;7.10;4.25;;;;;;;5.34;76.47;100324.53;5031274;28;20082;-67
2024/02/07 02:01:51;;;;;;;7.85;4.25;;;;;;;5.14;76.61;100290.16;5029692;28;20049;-67
2024/02/07 02:04:17;;;;;;;7.03;4.22;;;;;;;5.24;77.11;100323.94;4996117;28;20050;-67
2024/02/07 02:06:42;;;;;;;9.10;4.32;;;;;;;5.14;77.46;100330.22;5029258;28;20049;-69
2024/02/07 02:09:08;;;;;;;8.95;4.55;;;;;;;4.96;78.56;100327.47;5029162;28;20266;-72
2024/02/07 02:11:40;;;;;;;6.93;3.53;;;;;;;4.72;79.73;100315.06;5028993;28;20460;-65
2024/02/07 02:14:07;;;;;;;7.13;3.90;;;;;;;4.91;79.34;100331.47;5029014;28;20525;-68
2024/02/07 02:16:35;;;;;;;7.18;4.53;;;;;;;4.53;78.26;100251.75;5029466;28;20060;-65
2024/02/07 02:19:01;;;;;;;9.32;3.95;;;;;;;5.04;77.87;100328.81;5028463;28;20033;-67
2024/02/07 02:21:30;;;;;;;11.50;5.57;;;;;;;4.66;77.87;100255.88;5028698;28;20060;-67
2024/02/07 02:24:08;;;;;;;10.85;5.70;;;;;;;4.70;76.19;100250.16;5025374;28;20627;-71
2024/02/07 02:27:16;;;;;;;9.48;5.15;;;;;;;5.16;76.45;100329.50;5023777;28;20589;-68
2024/02/07 02:29:53;;;;;;;11.27;4.93;;;;;;;5.25;76.22;100331.72;4934868;28;20523;-71
2024/02/07 02:32:23;;;;;;;10.27;5.13;;;;;;;5.29;75.94;100325.94;4956622;28;20068;-67
2024/02/07 02:34:52;;;;;;;10.52;5.40;;;;;;;5.19;76.10;100327.09;4988937;28;20049;-66
2024/02/07 02:37:21;;;;;;;17.15;5.82;;;;;;;4.97;77.24;100330.16;4989077;28;20097;-68
2024/02/07 02:39:47;;;;;;;7.97;4.72;;;;;;;4.76;78.58;100327.25;4988874;28;20038;-67
2024/02/07 02:42:13;;;;;;;9.32;4.40;;;;;;;4.70;79.01;100329.44;4989118;28;20726;-68
2024/02/07 02:44:39;;;;;;;11.75;4.30;;;;;;;4.78;78.83;100330.75;4989355;28;20049;-67
2024/02/07 02:47:07;;;;;;;8.18;4.47;;;;;;;4.36;78.69;100254.22;4988898;28;20030;-67
2024/02/07 02:49:34;;;;;;;7.22;3.92;;;;;;;4.78;78.83;100335.00;4964727;28;20035;-67
2024/02/07 02:52:00;;;;;;;6.90;4.10;;;;;;;4.78;79.50;100325.63;4988798;28;20575;-67
2024/02/07 02:54:26;;;;;;;8.45;4.05;;;;;;;4.58;79.34;100316.81;4988736;28;20042;-66
2024/02/07 02:56:59;;;;;;;11.88;5.50;;;;;;;4.76;78.75;100329.81;4989458;28;20038;-68
2024/02/07 02:59:25;;;;;;;10.07;4.60;;;;;;;4.91;79.15;100331.47;4988008;28;20046;-67
2024/02/07 03:01:51;;;;;;;10.02;4.55;;;;;;;4.95;78.05;100334.28;4988464;28;20035;-67
2024/02/07 03:04:17;;;;;;;13.07;4.65;;;;;;;4.79;77.87;100299.28;4989230;28;20034;-65
2024/02/07 03:06:58;;;;;;;8.35;5.40;;;;;;;5.09;78.15;100329.09;5014693;28;20451;-66
2024/02/07 03:09:26;;;;;;;9.02;4.70;;;;;;;4.99;77.51;100343.03;5029990;28;20075;-67
2024/02/07 03:11:53;;;;;;;8.60;5.18;;;;;;;5.00;77.77;100339.69;5034827;28;20075;-66
2024/02/07 03:14:18;;;;;;;8.38;4.80;;;;;;;5.04;76.85;100336.50;5031232;28;20027;-67
2024/02/07 03:16:45;;;;;;;9.38;5.43;;;;;;;4.86;76.72;100326.97;5030605;28;20056;-69
2024/02/07 03:19:12;;;;;;;11.63;6.03;;;;;;;4.73;74.36;100298.06;5030907;28;20473;-68
2024/02/07 03:21:39;;;;;;;9.82;6.55;;;;;;;4.87;73.72;100320.16;5030406;28;20065;-67
2024/02/07 03:24:05;;;;;;;12.02;6.30;;;;;;;4.50;73.44;100236.25;5030862;28;20499;-67
2024/02/07 03:26:30;;;;;;;11.30;6.32;;;;;;;4.91;71.98;100303.31;5028398;28;20037;-67
2024/02/07 03:28:56;;;;;;;12.15;6.63;;;;;;;4.64;71.26;100248.13;5029694;28;20422;-66
2024/02/07 03:31:21;;;;;;;10.45;6.00;;;;;;;5.10;71.98;100318.94;5030331;28;20029;-67
2024/02/07 03:33:48;;;;;;;11.93;7.03;;;;;;;4.62;72.88;100236.06;5028277;28;20124;-65
2024/02/07 03:36:13;;;;;;;11.77;6.63;;;;;;;5.10;72.81;100326.59;5030331;28;20455;-68
2024/02/07 03:38:40;;;;;;;9.80;5.93;;;;;;;4.83;74.09;100325.91;5029936;28;20116;-67
2024/02/07 03:41:06;;;;;;;11.63;5.90;;;;;;;4.66;74.97;100325.81;5028599;28;20061;-67
2024/02/07 03:43:33;;;;;;;11.95;5.72;;;;;;;4.52;75.13;100321.56;5029717;28;20106;-67
2024/02/07 03:46:00;;;;;;;10.00;5.82;;;;;;;4.02;77.26;100305.84;5029944;28;20033;-67
2024/02/07 03:48:27;;;;;;;10.82;5.80;;;;;;;4.15;78.62;100317.72;5030011;28;20071;-67
2024/02/07 03:50:53;;;;;;;13.35;5.13;;;;;;;4.23;79.58;100319.84;5029884;28;20029;-67
2024/02/07 03:53:19;;;;;;;8.25;5.13;;;;;;;3.82;79.79;100243.34;5029634;28;20087;-67
2024/02/07 03:55:44;;;;;;;9.60;5.30;;;;;;;4.34;79.92;100318.81;5029203;28;20021;-65
2024/02/07 03:58:10;;;;;;;12.38;6.43;;;;;;;4.24;79.35;100309.72;5030346;28;20040;-68
2024/02/07 04:00:36;;;;;;;9.43;5.25;;;;;;;4.31;80.41;100319.53;5027394;28;20026;-67
2024/02/07 04:03:02;;;;;;;9.43;5.10;;;;;;;4.41;81.10;100315.84;5031517;28;20033;-67
2024/02/07 04:05:27;;;;;;;8.48;4.57;;;;;;;4.46;80.81;100308.41;5028902;28;20086;-67
2024/02/07 04:07:53;;;;;;;8.43;4.50;;;;;;;4.41;81.16;100302.16;5029022;28;20037;-66
2024/02/07 04:10:19;;;;;;;8.20;4.07;;;;;;;4.34;81.49;100312.03;5029341;28;20032;-67
2024/02/07 05:15:42;;;;;;;10.95;7.43;;;;;;;2.73;95.36;100319.91;5029004;28;20091;-64
2024/02/07 05:18:07;;;;;;;14.87;7.00;;;;;;;1.78;96.42;100194.72;5028443;28;20525;-68
2024/02/07 05:20:33;;;;;;;13.52;6.90;;;;;;;2.42;97.60;100314.47;5028702;28;20029;-64
2024/02/07 05:22:59;;;;;;;12.10;7.27;;;;;;;2.60;97.69;100324.97;5029423;28;20028;-66
2024/02/07 05:25:25;;;;;;;11.02;7.07;;;;;;;2.56;96.55;100300.94;5032286;28;20084;-66
2024/02/07 05:27:50;;;;;;;14.93;7.90;;;;;;;2.48;96.51;100271.56;5032092;28;20033;-66
2024/02/07 05:30:17;;;;;;;11.80;8.10;;;;;;;2.48;96.35;100255.38;5032236;28;20473;-67
2024/02/07 05:32:44;;;;;;;13.13;8.07;;;;;;;2.85;95.50;100321.50;5032428;28;20049;-67
2024/02/07 05:35:09;;;;;;;16.45;10.13;;;;;;;3.02;95.21;100331.13;5032525;28;20043;-68
2024/02/07 05:37:35;;;;;;;16.25;8.73;;;;;;;3.14;94.51;100333.59;5032324;28;20150;-67
2024/02/07 05:40:02;;;;;;;17.65;8.73;;;;;;;3.23;93.97;100334.19;5030858;28;20146;-67
2024/02/07 05:42:27;;;;;;;16.02;9.50;;;;;;;3.35;92.82;100335.75;5032675;28;20879;-67
2024/02/07 05:44:53;;;;;;;19.45;11.10;;;;;;;3.12;92.19;100270.53;5032268;28;20112;-66
2024/02/07 05:47:20;;;;;;;19.90;10.35;;;;;;;3.56;90.96;100337.13;5013918;28;20047;-66
2024/02/07 05:49:46;;;;;;;17.20;10.95;;;;;;;3.54;90.29;100342.91;5032206;28;20033;-66
2024/02/07 05:52:11;;;;;;;24.77;14.45;;;;;;;3.08;92.54;100334.09;5032306;28;20554;-66
2024/02/07 05:54:37;;;;;;;94.05;41.80;;;;;;;3.25;93.07;100339.38;5032213;28;20025;-67
2024/02/07 05:57:03;;;;;;;30.15;17.52;;;;;;;3.34;93.03;100339.97;5031629;28;20033;-66
2024/02/07 05:59:29;;;;;;;20.58;11.13;;;;;;;2.93;93.75;100279.56;5030785;28;20045;-66
2024/02/07 06:01:54;;;;;;;18.27;9.82;;;;;;;3.42;93.71;100353.22;5032022;28;20576;-66
2024/02/07 06:04:20;;;;;;;17.05;10.60;;;;;;;3.48;93.40;100352.75;5032212;28;20021;-69
2024/02/07 06:06:46;;;;;;;18.60;10.80;;;;;;;3.52;92.79;100353.00;5032534;28;20541;-67
2024/02/07 06:09:13;;;;;;;15.02;9.65;;;;;;;3.51;92.81;100355.47;5030270;28;20073;-66
2024/02/07 06:11:41;;;;;;;14.15;9.52;;;;;;;3.45;92.23;100327.91;5032157;28;20052;-67
2024/02/07 06:14:16;;;;;;;21.45;10.30;;;;;;;3.17;91.81;100264.03;5031738;28;20083;-72
2024/02/07 06:16:41;;;;;;;17.48;10.70;;;;;;;3.60;91.47;100343.31;5012323;28;20037;-65
2024/02/07 06:19:07;;;;;;;17.40;10.10;;;;;;;3.65;91.96;100351.22;5031449;28;20037;-66
2024/02/07 06:21:34;;;;;;;18.25;11.13;;;;;;;3.20;92.70;100269.31;5005921;28;20041;-66
2024/02/07 06:24:00;;;;;;;15.88;10.93;;;;;;;3.74;93.65;100346.72;5012843;28;20041;-66
2024/02/07 06:26:26;;;;;;;16.42;11.13;;;;;;;3.84;93.38;100354.16;5032130;28;20128;-67
2024/02/07 06:28:53;;;;;;;26.42;12.27;;;;;;;3.87;92.97;100350.91;5031666;28;20091;-66
2024/02/07 06:31:19;;;;;;;15.63;11.30;;;;;;;3.94;94.10;100350.50;5030062;28;20535;-66
2024/02/07 06:33:44;;;;;;;19.40;11.18;;;;;;;4.00;94.45;100355.09;5032193;28;20025;-68
2024/02/07 06:36:11;;;;;;;20.77;12.80;;;;;;;4.05;94.86;100348.63;5031671;28;20155;-67
2024/02/07 06:38:36;;;;;;;20.58;11.93;;;;;;;3.98;95.47;100331.16;5031758;28;20036;-66
2024/02/07 06:41:02;;;;;;;23.02;12.50;;;;;;;4.18;96.99;100350.22;5031648;28;20050;-64
2024/02/07 06:43:28;;;;;;;17.67;12.48;;;;;;;4.21;97.45;100347.84;5031848;28;20052;-66
2024/02/07 06:45:54;;;;;;;20.05;12.02;;;;;;;4.36;98.49;100353.00;5031449;28;20033;-66
2024/02/07 06:48:19;;;;;;;25.95;12.00;;;;;;;4.63;98.19;100356.31;5030981;28;20041;-65
2024/02/07 06:50:46;;;;;;;20.70;12.52;;;;;;;4.88;98.35;100339.84;5032199;28;20060;-65
2024/02/07 06:53:12;;;;;;;17.38;11.27;;;;;;;5.11;97.30;100325.81;5031362;28;20116;-67
2024/02/07 06:55:37;;;;;;;16.65;11.25;;;;;;;5.48;96.56;100329.53;5031456;28;20120;-67
2024/02/07 06:58:03;;;;;;;17.05;10.75;;;;;;;5.75;96.78;100334.41;5030768;28;20036;-67
2024/02/07 07:00:28;;;;;;;16.50;10.82;;;;;;;6.09;95.81;100342.25;5031357;28;20036;-68
2024/02/07 07:02:54;;;;;;;15.43;10.18;;;;;;;6.45;95.02;100354.34;5031721;28;20029;-67
2024/02/07 07:05:19;;;;;;;15.23;9.68;;;;;;;6.28;94.19;100266.28;5031031;28;20504;-65
2024/02/07 07:07:45;;;;;;;11.57;7.80;;;;;;;7.03;91.44;100345.25;5030791;28;20064;-66
2024/02/07 07:10:10;;;;;;;13.75;7.78;;;;;;;7.15;89.99;100338.13;5028575;28;20042;-68
2024/02/07 07:12:36;;;;;;;11.85;7.00;;;;;;;7.45;88.76;100343.00;5031176;28;20033;-71
2024/02/07 07:15:02;;;;;;;11.15;7.43;;;;;;;7.56;88.08;100338.38;5011967;28;20442;-67
2024/02/07 07:17:27;;;;;;;11.23;6.90;;;;;;;7.79;87.32;100354.88;5031008;28;20029;-67
2024/02/07 07:19:53;;;;;;;14.50;8.10;;;;;;;8.00;86.02;100348.94;5031544;28;20025;-66
2024/02/07 07:22:18;;;;;;;14.20;7.43;;;;;;;8.09;85.59;100346.78;5030827;28;20409;-67
2024/02/07 07:24:44;;;;;;;11.68;7.38;;;;;;;8.16;85.55;100350.50;5030784;28;20037;-67
2024/02/07 07:27:11;;;;;;;12.50;7.25;;;;;;;8.30;85.78;100343.41;5030826;28;20116;-65
2024/02/07 07:29:37;;;;;;;13.35;7.88;;;;;;;8.39;85.66;100324.09;5030250;28;20030;-66
2024/02/07 07:32:04;;;;;;;11.75;7.80;;;;;;;8.57;85.69;100310.31;5030605;28;20505;-67
2024/02/07 07:34:30;;;;;;;11.75;7.32;;;;;;;8.78;85.67;100323.19;5028932;28;20052;-66
2024/02/07 07:36:55;;;;;;;12.32;7.47;;;;;;;8.78;85.89;100297.44;5030926;28;20469;-65
2024/02/07 07:39:21;;;;;;;16.30;8.57;;;;;;;8.80;85.24;100270.09;5029027;28;20041;-66
2024/02/07 07:41:46;;;;;;;13.35;6.82;;;;;;;9.18;84.46;100304.25;5030663;28;20084;-67
2024/02/07 07:44:12;;;;;;;10.95;7.63;;;;;;;9.07;84.81;100297.75;5030477;28;20033;-66
2024/02/07 07:46:38;;;;;;;13.77;8.20;;;;;;;9.20;84.41;100306.88;5030321;28;20056;-66
2024/02/07 07:49:03;;;;;;;11.93;8.35;;;;;;;9.25;84.18;100310.50;5030255;28;20519;-66
2024/02/07 07:51:29;;;;;;;12.63;7.72;;;;;;;9.21;84.38;100301.78;5030334;28;20037;-66
2024/02/07 07:53:55;;;;;;;14.32;7.50;;;;;;;9.39;84.52;100311.03;5030399;28;20064;-66
2024/02/07 07:56:20;;;;;;;16.27;7.70;;;;;;;9.53;82.05;100312.47;4999796;28;20037;-66
2024/02/07 07:58:50;;;;;;;10.80;7.00;;;;;;;9.41;81.13;100281.06;5028729;28;20033;-66
2024/02/07 08:01:19;;;;;;;11.95;6.93;;;;;;;9.31;79.08;100236.03;5026029;28;20045;-66
2024/02/07 08:03:45;;;;;;;10.48;7.20;;;;;;;9.82;78.80;100292.06;5030531;28;20041;-65
2024/02/07 08:06:11;;;;;;;9.95;6.90;;;;;;;9.92;79.03;100294.97;5029977;28;20508;-66
2024/02/07 08:08:37;;;;;;;13.57;7.20;;;;;;;10.03;78.63;100303.97;5029980;28;20447;-66
2024/02/07 08:11:03;;;;;;;10.93;6.75;;;;;;;10.10;78.12;100287.03;5030015;28;20026;-64
2024/02/07 08:13:29;;;;;;;10.25;6.53;;;;;;;10.38;77.50;100296.66;5028448;28;20519;-67
2024/02/07 08:15:55;;;;;;;12.70;7.00;;;;;;;10.13;77.34;100231.28;5030537;28;20393;-66
2024/02/07 08:18:20;;;;;;;9.35;5.38;;;;;;;10.56;77.88;100290.38;5028674;28;20159;-65
2024/02/07 08:20:46;;;;;;;10.85;6.13;;;;;;;10.66;78.31;100284.69;5029522;28;20088;-65
2024/02/07 08:23:31;;;;;;;10.43;5.68;;;;;;;10.80;78.22;100290.31;5026467;28;20046;-65
2024/02/07 08:25:57;;;;;;;9.93;5.72;;;;;;;10.49;77.95;100209.25;5027847;28;20045;-66
2024/02/07 08:28:22;;;;;;;9.45;5.10;;;;;;;10.97;78.21;100280.53;5026598;28;20049;-67
2024/02/07 08:30:48;;;;;;;11.05;5.88;;;;;;;10.99;78.47;100277.19;5027136;28;20037;-65
2024/02/07 08:33:13;;;;;;;9.40;6.05;;;;;;;11.07;78.35;100267.09;5026832;28;20041;-65
2024/02/07 08:35:39;;;;;;;14.02;5.70;;;;;;;11.27;77.64;100280.63;5026957;28;20053;-66
2024/02/07 08:38:04;;;;;;;12.18;6.05;;;;;;;11.36;77.43;100271.41;5026855;28;20084;-65
2024/02/07 08:40:31;;;;;;;9.38;6.28;;;;;;;11.49;77.59;100277.00;5026758;28;20636;-64
2024/02/07 08:42:57;;;;;;;8.73;5.60;;;;;;;11.54;77.37;100269.38;5027034;28;20056;-66
2024/02/07 08:45:23;;;;;;;13.57;6.25;;;;;;;11.56;78.60;100270.28;5011196;28;20049;-66
2024/02/07 08:47:48;;;;;;;9.15;5.47;;;;;;;11.64;79.11;100265.38;5021274;28;20120;-67
2024/02/07 08:50:14;;;;;;;10.15;5.70;;;;;;;11.88;77.93;100260.00;5026710;28;20097;-66
2024/02/07 08:52:41;;;;;;;9.77;5.53;;;;;;;12.04;77.63;100250.13;5001338;28;20041;-66
2024/02/07 08:55:08;;;;;;;14.65;5.95;;;;;;;12.39;76.72;100271.75;5027659;28;20508;-71
2024/02/07 08:57:39;;;;;;;13.05;5.93;;;;;;;12.50;76.81;100255.63;5030742;28;20029;-67
2024/02/07 09:00:08;;;;;;;9.52;5.32;;;;;;;12.53;76.27;100240.19;5033188;28;20036;-65
2024/02/07 09:02:35;;;;;;;18.13;6.18;;;;;;;12.74;75.99;100260.56;5032180;28;20545;-67
2024/02/07 09:05:07;;;;;;;9.40;5.60;;;;;;;12.35;76.18;100199.16;5033282;28;20124;-67
2024/02/07 09:07:33;;;;;;;9.07;5.20;;;;;;;12.71;76.64;100251.00;5033165;28;20053;-66
2024/02/07 09:09:58;;;;;;;10.38;5.32;;;;;;;12.74;77.42;100238.13;5030594;28;20067;-67
2024/02/07 09:12:24;;;;;;;9.23;5.22;;;;;;;12.81;77.50;100246.94;5033563;28;20021;-67
2024/02/07 09:14:50;;;;;;;11.02;6.32;;;;;;;12.83;78.40;100240.06;5031782;28;20056;-66
2024/02/07 09:17:15;;;;;;;8.70;5.22;;;;;;;12.93;79.29;100241.16;5033340;28;20034;-66
2024/02/07 09:19:41;;;;;;;10.55;4.40;;;;;;;13.14;79.92;100220.03;5033998;28;20037;-67
2024/02/07 09:22:06;;;;;;;12.48;5.57;;;;;;;13.28;80.23;100233.28;5033055;28;20034;-69
2024/02/07 09:24:32;;;;;;;11.55;6.13;;;;;;;13.50;77.86;100226.91;5033161;28;20029;-67
2024/02/07 09:26:59;;;;;;;10.85;5.80;;;;;;;13.78;76.82;100230.03;5032824;28;20033;-67
2024/02/07 09:29:25;;;;;;;9.20;5.38;;;;;;;13.94;75.71;100220.84;5032969;28;20115;-66
2024/02/07 09:31:50;;;;;;;10.27;5.85;;;;;;;13.73;75.92;100164.22;5033048;28;20079;-67
2024/02/07 09:34:16;;;;;;;8.23;5.20;;;;;;;14.12;75.78;100193.47;5033029;28;20032;-66
2024/02/07 09:36:42;;;;;;;11.05;5.30;;;;;;;14.30;75.02;100187.75;5033610;28;20025;-66
2024/02/07 09:39:07;;;;;;;8.02;5.38;;;;;;;14.52;75.02;100199.38;4995949;28;20056;-66
2024/02/07 09:41:34;;;;;;;9.35;5.32;;;;;;;14.70;73.47;100193.63;5030989;28;20076;-70
2024/02/07 09:44:04;;;;;;;9.77;4.70;;;;;;;14.65;72.23;100159.75;5032729;28;20029;-65
2024/02/07 09:46:37;;;;;;;9.68;5.25;;;;;;;14.81;69.37;100149.63;5032442;28;20087;-64
2024/02/07 09:49:13;;;;;;;10.52;5.25;;;;;;;15.14;68.34;100179.53;5032666;28;20037;-66
2024/02/07 09:51:42;;;;;;;9.15;4.95;;;;;;;15.28;67.44;100169.31;4972636;28;20041;-67
2024/02/07 09:54:17;;;;;;;10.20;5.00;;;;;;;15.26;68.16;100129.41;5004559;28;20566;-68
2024/02/07 09:56:45;;;;;;;8.15;4.75;;;;;;;15.55;65.54;100160.97;5032573;28;20116;-66
2024/02/07 09:59:12;;;;;;;13.30;5.68;;;;;;;15.47;61.81;100123.59;5033070;28;20026;-66
2024/02/07 10:01:38;;;;;;;9.18;5.68;;;;;;;15.80;61.47;100141.31;5032666;28;20033;-66
2024/02/07 10:04:08;;;;;;;10.77;5.15;;;;;;;15.97;62.40;100141.47;5030779;28;20040;-64
2024/02/07 10:06:34;;;;;;;10.98;5.25;;;;;;;16.04;61.31;100123.31;5028147;28;20026;-65
2024/02/07 10:09:00;;;;;;;9.95;4.85;;;;;;;16.08;61.02;100119.91;5028309;28;20036;-67
2024/02/07 10:11:28;;;;;;;10.43;5.00;;;;;;;16.09;61.41;100112.09;5032234;28;20119;-64
2024/02/07 10:13:54;;;;;;;9.57;4.65;;;;;;;16.23;60.80;100104.38;5032273;28;20116;-65
2024/02/07 10:16:20;;;;;;;8.45;3.92;;;;;;;16.45;54.67;100117.59;5031604;28;20113;-66
2024/02/07 10:18:48;;;;;;;7.53;3.60;;;;;;;16.57;50.43;100114.19;5030700;28;20026;-64
2024/02/07 10:21:14;;;;;;;6.40;3.20;;;;;;;16.68;50.88;100106.44;5031683;28;20571;-65
2024/02/07 10:23:41;;;;;;;8.55;4.00;;;;;;;16.75;51.39;100106.47;5031784;28;20044;-66
2024/02/07 10:26:09;;;;;;;6.93;3.42;;;;;;;16.86;51.50;100100.44;5030654;28;20045;-67
2024/02/07 10:28:36;;;;;;;8.95;3.85;;;;;;;16.96;53.51;100089.25;5033889;28;20087;-65
2024/02/07 10:31:12;;;;;;;6.38;3.63;;;;;;;17.09;50.19;100084.94;5032663;28;20449;-67
2024/02/07 10:33:44;;;;;;;7.20;3.45;;;;;;;17.10;50.99;100073.66;5036052;28;20163;-68
2024/02/07 10:36:10;;;;;;;7.18;3.70;;;;;;;16.70;50.99;100003.03;5031191;28;20483;-65
2024/02/07 10:38:36;;;;;;;7.07;3.60;;;;;;;17.18;50.88;100076.28;5030940;28;20064;-64
2024/02/07 10:41:02;;;;;;;9.68;3.95;;;;;;;17.11;51.90;100072.81;5031577;28;20064;-69
2024/02/07 10:43:36;;;;;;;9.60;3.60;;;;;;;17.12;52.96;100067.59;5031504;28;20080;-66
2024/02/07 10:46:03;;;;;;;8.10;3.67;;;;;;;17.22;51.68;100065.00;5031184;28;20048;-66
2024/02/07 10:48:29;;;;;;;11.02;3.42;;;;;;;17.25;51.59;100062.41;5031390;28;20075;-67
2024/02/07 10:50:58;;;;;;;7.82;3.38;;;;;;;17.23;51.62;100054.56;5031510;28;20439;-66
2024/02/07 10:53:27;;;;;;;7.80;3.83;;;;;;;17.20;52.54;100038.06;5031062;28;20574;-66
2024/02/07 10:55:55;;;;;;;8.52;3.53;;;;;;;17.15;52.14;100027.59;5031738;28;20029;-67
2024/02/07 10:58:22;;;;;;;8.15;3.38;;;;;;;17.09;51.79;100004.97;5027557;28;20068;-66
2024/02/07 11:00:51;;;;;;;7.88;3.47;;;;;;;17.27;51.42;100019.81;5030024;28;20041;-66
2024/02/07 11:03:21;;;;;;;7.22;3.72;;;;;;;17.42;50.80;100016.34;5031505;28;20037;-66
2024/02/07 11:05:50;;;;;;;7.03;3.72;;;;;;;17.51;50.09;100020.72;5031293;28;20033;-65
2024/02/07 11:08:16;;;;;;;8.32;3.60;;;;;;;17.55;51.27;100011.16;5031233;28;20459;-66
2024/02/07 11:10:42;;;;;;;5.43;3.20;;;;;;;17.50;50.91;100005.06;5031152;28;20033;-67
2024/02/07 11:13:12;;;;;;;6.70;3.63;;;;;;;17.51;51.66;100012.88;5031034;28;20036;-72
2024/02/07 11:15:39;;;;;;;8.27;3.22;;;;;;;17.55;50.45;99987.66;5029595;28;20424;-66
2024/02/07 11:18:07;;;;;;;17.75;6.03;;;;;;;17.73;49.42;99999.84;5029635;28;20045;-67
2024/02/07 11:20:33;;;;;;;12.35;4.78;;;;;;;17.55;49.33;99948.50;5030144;28;20044;-66
2024/02/07 11:23:03;;;;;;;13.15;5.85;;;;;;;17.95;49.18;99996.38;5030776;28;20112;-66
2024/02/07 11:25:32;;;;;;;6.53;3.63;;;;;;;17.93;47.96;99997.22;5030707;28;20048;-67
2024/02/07 11:27:59;;;;;;;11.80;3.83;;;;;;;17.81;47.59;99984.16;5030377;28;20029;-66
2024/02/07 11:30:25;;;;;;;7.68;3.00;;;;;;;17.81;46.15;99990.25;5030489;28;20084;-66
2024/02/07 11:32:51;;;;;;;10.18;3.85;;;;;;;17.45;47.79;99911.94;5028982;28;20033;-66
2024/02/07 11:35:21;;;;;;;7.20;3.30;;;;;;;17.44;48.62;99925.00;5030591;28;20040;-68
2024/02/07 11:37:50;;;;;;;6.82;3.20;;;;;;;17.89;47.77;99988.50;5029834;28;20033;-67
2024/02/07 11:40:18;;;;;;;9.43;3.00;;;;;;;17.59;46.45;99922.38;5030246;28;20060;-66
2024/02/07 11:43:01;;;;;;;6.07;2.85;;;;;;;17.81;46.80;99942.38;5060934;28;20399;-65
2024/02/07 11:45:27;;;;;;;7.68;3.22;;;;;;;18.01;47.49;99976.38;5046923;28;20046;-65
2024/02/07 11:47:52;;;;;;;7.53;3.15;;;;;;;18.08;48.00;99972.84;5045640;28;20025;-67
2024/02/07 11:50:18;;;;;;;9.20;3.30;;;;;;;18.02;47.42;99949.34;5046497;28;20068;-73
2024/02/07 11:52:45;;;;;;;7.05;3.17;;;;;;;18.23;46.20;99966.72;5047745;28;20025;-65
2024/02/07 11:55:15;;;;;;;8.30;3.55;;;;;;;18.22;47.13;99967.59;5046843;28;20068;-66
2024/02/07 11:57:45;;;;;;;9.60;3.20;;;;;;;18.27;47.47;99969.31;5044148;28;20033;-65
2024/02/07 12:00:19;;;;;;;12.85;3.70;;;;;;;18.29;47.19;99960.63;5046618;28;20037;-65
2024/02/07 12:02:48;;;;;;;7.85;3.42;;;;;;;17.89;48.12;99893.63;5046706;28;20067;-65
2024/02/07 12:05:16;;;;;;;10.50;3.83;;;;;;;18.20;49.34;99945.84;5046651;28;20456;-66
2024/02/07 12:07:42;;;;;;;7.28;2.83;;;;;;;18.18;49.69;99922.34;5046531;28;20025;-67
2024/02/07 12:10:11;;;;;;;10.02;3.40;;;;;;;18.27;50.62;99942.34;5046868;28;20397;-65
2024/02/07 12:12:37;;;;;;;9.05;3.25;;;;;;;18.36;50.95;99936.22;5046627;28;20047;-66
2024/02/07 12:15:03;;;;;;;8.93;3.55;;;;;;;18.40;50.92;99933.56;5046484;28;20468;-64
2024/02/07 12:17:34;;;;;;;9.85;3.75;;;;;;;18.42;50.47;99933.56;5041709;28;20448;-67
2024/02/07 12:20:02;;;;;;;12.32;4.00;;;;;;;18.02;51.22;99866.66;5048594;28;20026;-67
2024/02/07 12:22:41;;;;;;;10.05;3.47;;;;;;;18.36;51.51;99930.97;5027736;28;20050;-66
2024/02/07 12:25:17;;;;;;;12.75;5.80;;;;;;;18.08;51.95;99884.03;5042368;28;20095;-66
2024/02/07 12:27:44;;;;;;;11.23;5.35;;;;;;;18.17;51.74;99909.25;5047412;28;20036;-67
2024/02/07 12:30:10;;;;;;;7.72;3.47;;;;;;;18.19;52.66;99926.66;5047132;28;20029;-68